Arklow Rogue — EIGD — position and weather

sailwx.info

Track history (hours):
 
Tides and Currents Weather Stations Pressure Air Temp Water Temp Dewpoint Dewpoint Depression Visibility Wind Speed Wind Dir Waves Ship Positions

Arklow Rogue

Last reported at 2018-Jun-14 23:15 UTC. Time now 2018-Jun-20 05:35 UTC.
Position N 44°48' W 002°43'.

Length 90 m; draft 3.4 m.

Type: Cargo ship. MMSI: 250000960.

Date/timePositionNaut miles runAvg speedWind from/ knotsBaromVisibWave heightAir tempDewpointWater temp
2018-Jun-14 23:15N 44°48' W 002°43'1911.1
2018-Jun-14 21:33N 44°32' W 002°28'011.2
2018-Jun-14 21:30N 44°32' W 002°28'711.3
2018-Jun-14 20:55N 44°27' W 002°23'511.3
2018-Jun-14 20:30N 44°23' W 002°19'611.2
2018-Jun-14 20:00N 44°18' W 002°15'611.6
2018-Jun-14 19:30N 44°13' W 002°11'612.0
2018-Jun-14 19:00N 44°08' W 002°06'612.1
2018-Jun-14 18:30N 44°03' W 002°02'1012.0
2018-Jun-14 17:42N 43°55' W 001°54'211.8
2018-Jun-14 17:30N 43°53' W 001°52'611.6
2018-Jun-14 17:00N 43°48' W 001°48'611.3
2018-Jun-14 16:30N 43°44' W 001°43'611.4
2018-Jun-14 16:00N 43°39' W 001°38'611.5
2018-Jun-14 15:30N 43°34' W 001°34'4 8.1
2018-Jun-14 15:00N 43°32' W 001°30'0 0.0
2018-Jun-14 14:30N 43°32' W 001°30'0 0.0
2018-Jun-14 14:00N 43°32' W 001°30'0 0.0
2018-Jun-14 13:30N 43°32' W 001°30'0 0.0
2018-Jun-14 13:00N 43°32' W 001°30'0 0.0
2018-Jun-14 12:30N 43°32' W 001°30'0 0.0
2018-Jun-14 12:00N 43°32' W 001°30'0 0.0
2018-Jun-14 11:30N 43°32' W 001°30'0 0.0
2018-Jun-14 11:00N 43°32' W 001°30'0 0.0
2018-Jun-14 10:30N 43°32' W 001°30'0 0.0
2018-Jun-14 10:00N 43°32' W 001°30'0 0.0
2018-Jun-14 09:27N 43°32' W 001°30'0 0.0
2018-Jun-14 09:00N 43°32' W 001°30'0 0.0
2018-Jun-14 08:30N 43°32' W 001°30'0 0.0
2018-Jun-14 08:00N 43°32' W 001°30'0 0.0
2018-Jun-14 07:30N 43°32' W 001°30'0 0.0
2018-Jun-14 06:57N 43°32' W 001°30'0 0.0
2018-Jun-14 06:30N 43°32' W 001°30'0 0.0
2018-Jun-14 06:00N 43°32' W 001°30'0 0.0
2018-Jun-14 05:30N 43°32' W 001°30'0 0.0
2018-Jun-14 05:00N 43°32' W 001°30'0 0.0
2018-Jun-14 04:30N 43°32' W 001°30'0 0.0
2018-Jun-14 04:00N 43°32' W 001°30'0 0.0
2018-Jun-14 03:27N 43°32' W 001°30'0 0.0
2018-Jun-14 03:00N 43°32' W 001°30'0 0.0
2018-Jun-14 02:30N 43°32' W 001°30'0 0.0
2018-Jun-14 02:00N 43°32' W 001°30'0 0.0
2018-Jun-14 01:27N 43°32' W 001°30'0 0.0
2018-Jun-14 01:00N 43°32' W 001°30'0 0.0
2018-Jun-14 00:30N 43°32' W 001°30'0 0.0
2018-Jun-14 00:00N 43°32' W 001°30'0 0.0
2018-Jun-13 23:30N 43°32' W 001°30'0 0.0
2018-Jun-13 23:00N 43°32' W 001°30'0 0.0
2018-Jun-13 22:30N 43°32' W 001°30'0 0.0
2018-Jun-13 22:00N 43°32' W 001°30'0 0.0
2018-Jun-13 21:30N 43°32' W 001°30'0 0.0
2018-Jun-13 21:00N 43°32' W 001°30'0 0.0
2018-Jun-13 20:30N 43°32' W 001°30'2 3.0
2018-Jun-13 20:00N 43°32' W 001°32'611.0
2018-Jun-13 19:29N 43°36' W 001°36'612.0
2018-Jun-13 19:00N 43°41' W 001°41'712.6
2018-Jun-13 18:29N 43°47' W 001°45'912.7
2018-Jun-13 17:46N 43°55' W 001°52'313.0
2018-Jun-13 17:31N 43°58' W 001°54'612.9
2018-Jun-13 17:01N 44°03' W 001°59'612.9
2018-Jun-13 16:30N 44°08' W 002°04'713.0
2018-Jun-13 16:00N 44°14' W 002°09'612.9
2018-Jun-13 15:30N 44°20' W 002°13'712.9
2018-Jun-13 14:59N 44°26' W 002°18'23712.4
2018-Jun-12 19:53N 47°48' W 005°16'1213.5
2018-Jun-12 18:58N 47°59' W 005°26'1413.5
2018-Jun-12 17:58N 48°10' W 005°37'1313.4
2018-Jun-12 16:58N 48°22' W 005°46'1413.0
2018-Jun-12 15:53N 48°34' W 005°57'11212.2
2018-Jun-12 06:42N 50°26' W 005°52'313.4
2018-Jun-12 06:31N 50°28' W 005°49'812.9
2018-Jun-12 05:52N 50°34' W 005°41'512.4
2018-Jun-12 05:29N 50°37' W 005°36'612.1
2018-Jun-12 05:00N 50°42' W 005°30'611.8
2018-Jun-12 04:31N 50°46' W 005°23'611.3
2018-Jun-12 04:01N 50°50' W 005°17'611.2
2018-Jun-12 03:31N 50°54' W 005°11'611.0
2018-Jun-12 03:01N 50°58' W 005°05'611.1
2018-Jun-12 02:30N 51°02' W 004°59'611.0
2018-Jun-12 02:01N 51°06' W 004°53'611.1
2018-Jun-12 01:31N 51°10' W 004°47'710.1
2018-Jun-12 00:52N 51°14' W 004°39'410.5
2018-Jun-12 00:30N 51°15' W 004°33'4512.9
2018-Jun-11 20:59N 51°22' W 003°21'1014.4
2018-Jun-11 20:17N 51°24' W 003°06'415.7
2018-Jun-11 20:00N 51°27' W 002°60'816.9
2018-Jun-11 19:30N 51°30' W 002°47'3 5.7
2018-Jun-11 19:00N 51°30' W 002°43'0 1.0
2018-Jun-11 18:30N 51°31' W 002°42'0 0.0
2018-Jun-11 17:59N 51°31' W 002°42'0 0.0
2018-Jun-11 17:29N 51°31' W 002°42'0 0.0
2018-Jun-11 16:59N 51°31' W 002°42'0 0.0
2018-Jun-11 16:29N 51°31' W 002°42'0 0.0
2018-Jun-11 15:59N 51°31' W 002°42'0 0.0
2018-Jun-11 15:29N 51°31' W 002°42'0 0.0
2018-Jun-11 14:59N 51°31' W 002°42'0 0.0
2018-Jun-11 14:29N 51°31' W 002°42'0 0.0
2018-Jun-11 13:59N 51°31' W 002°42'0 0.0
2018-Jun-11 13:29N 51°31' W 002°42'0 0.0
2018-Jun-11 12:59N 51°31' W 002°42'0 0.0
2018-Jun-11 12:29N 51°31' W 002°42'0 0.0
2018-Jun-11 11:59N 51°31' W 002°42'0 0.0
2018-Jun-11 11:29N 51°31' W 002°42'0 0.0
2018-Jun-11 10:59N 51°31' W 002°42'0 0.0
2018-Jun-11 10:26N 51°31' W 002°42'0 0.0
2018-Jun-11 09:59N 51°31' W 002°42'0 0.0
2018-Jun-11 09:29N 51°31' W 002°42'0 0.0
2018-Jun-11 08:59N 51°31' W 002°42'0 0.0
2018-Jun-11 08:29N 51°31' W 002°42'0 0.0
2018-Jun-11 07:59N 51°31' W 002°42'0 0.0
2018-Jun-11 07:29N 51°31' W 002°42'0 0.0
2018-Jun-11 06:59N 51°31' W 002°42'0 0.0
2018-Jun-11 06:29N 51°31' W 002°42'0 0.0
2018-Jun-11 05:59N 51°31' W 002°42'0 0.0
2018-Jun-11 05:29N 51°31' W 002°42'0 0.0
2018-Jun-11 04:59N 51°31' W 002°42'0 0.0
2018-Jun-11 04:29N 51°31' W 002°42'0 0.0
2018-Jun-11 03:59N 51°31' W 002°42'0 0.0
2018-Jun-11 03:29N 51°31' W 002°42'0 0.0
2018-Jun-11 02:59N 51°31' W 002°42'0 0.0
2018-Jun-11 02:29N 51°31' W 002°42'0 0.0
2018-Jun-11 01:59N 51°31' W 002°42'0 0.0
2018-Jun-11 01:29N 51°31' W 002°42'0 0.0
2018-Jun-11 00:59N 51°31' W 002°42'0 0.0
2018-Jun-11 00:29N 51°31' W 002°42'0 0.0
2018-Jun-10 23:59N 51°31' W 002°42'0 0.0
2018-Jun-10 23:29N 51°31' W 002°42'0 0.0
2018-Jun-10 22:59N 51°31' W 002°42'0 0.0
2018-Jun-10 22:29N 51°31' W 002°42'0 0.0
2018-Jun-10 21:59N 51°31' W 002°42'0 0.0
2018-Jun-10 21:29N 51°31' W 002°42'0 0.0
2018-Jun-10 20:59N 51°31' W 002°42'0 0.0
2018-Jun-10 20:29N 51°31' W 002°42'0 0.0
2018-Jun-10 19:59N 51°31' W 002°42'0 0.0
2018-Jun-10 19:29N 51°31' W 002°42'0 0.0
2018-Jun-10 18:59N 51°31' W 002°42'0 0.0
2018-Jun-10 18:29N 51°31' W 002°42'0 0.0
2018-Jun-10 17:59N 51°31' W 002°42'0 0.0
2018-Jun-10 17:29N 51°31' W 002°42'0 0.0
2018-Jun-10 16:59N 51°31' W 002°42'0 0.0
2018-Jun-10 16:30N 51°31' W 002°42'1 1.0
2018-Jun-10 16:00N 51°30' W 002°43'0 0.6
2018-Jun-10 15:30N 51°30' W 002°43'5 9.0
2018-Jun-10 15:00N 51°29' W 002°50'713.5
2018-Jun-10 14:30N 51°26' W 003°00'4710.4
2018-Jun-10 09:58N 51°26' W 004°16'510.5
2018-Jun-10 09:28N 51°27' W 004°24'610.4
2018-Jun-10 08:53N 51°28' W 004°34'410.6
2018-Jun-10 08:30N 51°28' W 004°40'510.6
2018-Jun-10 08:00N 51°29' W 004°49'510.0
2018-Jun-10 07:30N 51°30' W 004°56'5 9.4
2018-Jun-10 07:01N 51°31' W 005°04'5 9.7
2018-Jun-10 06:30N 51°31' W 005°12'5 9.4
2018-Jun-10 06:00N 51°34' W 005°18'5 9.7
2018-Jun-10 05:30N 51°38' W 005°22'5 9.6
2018-Jun-10 05:00N 51°42' W 005°24'5610.5
2018-Jun-09 23:38N 52°39' W 005°26'213.2
2018-Jun-09 23:30N 52°41' W 005°26'713.2
2018-Jun-09 22:59N 52°47' W 005°26'713.6
2018-Jun-09 22:30N 52°54' W 005°25'2012.9
2018-Jun-09 20:58N 53°14' W 005°24'911.6
2018-Jun-09 20:12N 53°23' W 005°24'311.0
2018-Jun-09 19:54N 53°26' W 005°23'610.9
2018-Jun-09 19:19N 53°32' W 005°23'511.1
2018-Jun-09 18:54N 53°37' W 005°23'1911.0
2018-Jun-09 17:12N 53°56' W 005°21'411.0
2018-Jun-09 16:52N 53°59' W 005°21'411.2
2018-Jun-09 16:30N 54°03' W 005°21'511.2
2018-Jun-09 16:00N 54°09' W 005°20'1111.4
2018-Jun-09 15:00N 54°20' W 005°20'611.5
2018-Jun-09 14:30N 54°26' W 005°20'611.5
2018-Jun-09 14:00N 54°32' W 005°22'611.1
2018-Jun-09 13:30N 54°37' W 005°24'511.0
2018-Jun-09 13:00N 54°42' W 005°28'510.7
2018-Jun-09 12:30N 54°42' W 005°37'611.0
2018-Jun-09 12:00N 54°41' W 005°47'510.0
2018-Jun-09 11:31N 54°38' W 005°53'1 1.3
2018-Jun-09 10:58N 54°37' W 005°54'0 0.0
2018-Jun-09 10:28N 54°37' W 005°54'0 0.0
2018-Jun-09 09:58N 54°37' W 005°54'0 0.0
2018-Jun-09 09:28N 54°37' W 005°54'0 0.0
2018-Jun-09 08:58N 54°37' W 005°54'0 0.0
2018-Jun-09 08:28N 54°37' W 005°54'0 0.0
2018-Jun-09 07:58N 54°37' W 005°54'0 0.0
2018-Jun-09 07:28N 54°37' W 005°54'0 0.0
2018-Jun-09 06:58N 54°37' W 005°54'0 0.0
2018-Jun-09 06:28N 54°37' W 005°54'0 0.0
2018-Jun-09 05:58N 54°37' W 005°54'0 0.0
2018-Jun-09 05:28N 54°37' W 005°54'0 0.0
2018-Jun-09 04:58N 54°37' W 005°54'0 0.0
2018-Jun-09 04:28N 54°37' W 005°54'0 0.0
2018-Jun-09 03:58N 54°37' W 005°54'0 0.0
2018-Jun-09 03:28N 54°37' W 005°54'0 0.0
2018-Jun-09 02:58N 54°37' W 005°54'0 0.0
2018-Jun-09 02:28N 54°37' W 005°54'0 0.0
2018-Jun-09 01:58N 54°37' W 005°54'0 0.0
2018-Jun-09 01:25N 54°37' W 005°54'0 0.0
2018-Jun-09 00:58N 54°37' W 005°54'0 0.0
2018-Jun-09 00:28N 54°37' W 005°54'0 0.0
2018-Jun-08 23:58N 54°37' W 005°54'0 0.0
2018-Jun-08 23:28N 54°37' W 005°54'0 0.0
2018-Jun-08 22:58N 54°37' W 005°54'0 0.0
2018-Jun-08 22:25N 54°37' W 005°54'0 0.0
2018-Jun-08 21:55N 54°37' W 005°54'0 0.0
2018-Jun-08 21:28N 54°37' W 005°54'0 0.0
2018-Jun-08 20:55N 54°37' W 005°54'0 0.0
2018-Jun-08 20:22N 54°37' W 005°54'0 0.0
2018-Jun-08 19:58N 54°37' W 005°54'0 0.0
2018-Jun-08 19:28N 54°37' W 005°54'0 0.0
2018-Jun-08 18:58N 54°37' W 005°54'0 0.0
2018-Jun-08 18:28N 54°37' W 005°54'0 0.0
2018-Jun-08 18:01N 54°37' W 005°54'0 0.0
2018-Jun-08 17:28N 54°37' W 005°54'0 0.0
2018-Jun-08 16:58N 54°37' W 005°54'0 0.0
2018-Jun-08 09:46N 54°37' W 005°54'0 0.0
2018-Jun-08 09:22N 54°37' W 005°54'0 0.0
2018-Jun-08 08:52N 54°37' W 005°54'0 0.0
2018-Jun-08 08:28N 54°37' W 005°54'0 0.0
2018-Jun-08 07:58N 54°37' W 005°54'0 0.0
2018-Jun-08 07:31N 54°37' W 005°54'0 0.0
2018-Jun-08 06:55N 54°37' W 005°54'0 0.0
2018-Jun-08 06:28N 54°37' W 005°54'0 0.0
2018-Jun-08 05:58N 54°37' W 005°54'0 0.0
2018-Jun-08 05:31N 54°37' W 005°54'0 0.0
2018-Jun-08 04:58N 54°37' W 005°54'0 0.0
2018-Jun-08 04:28N 54°37' W 005°54'0 0.0
2018-Jun-08 03:58N 54°37' W 005°54'0 0.0
2018-Jun-08 03:28N 54°37' W 005°54'0 0.0
2018-Jun-08 02:58N 54°37' W 005°54'0 0.0
2018-Jun-08 02:28N 54°37' W 005°54'0 0.0
2018-Jun-08 01:58N 54°37' W 005°54'0 0.0
2018-Jun-08 01:28N 54°37' W 005°54'0 0.0
2018-Jun-08 00:58N 54°37' W 005°54'0 0.0
2018-Jun-08 00:31N 54°37' W 005°54'0 0.0
2018-Jun-07 23:58N 54°37' W 005°54'0 0.0
2018-Jun-07 23:28N 54°37' W 005°54'0 0.0
2018-Jun-07 22:58N 54°37' W 005°54'0 0.0
2018-Jun-07 22:28N 54°37' W 005°54'0 0.0
2018-Jun-07 22:01N 54°37' W 005°54'0 0.0
2018-Jun-07 21:28N 54°37' W 005°54'0 0.0
2018-Jun-07 20:58N 54°37' W 005°54'0 0.0
2018-Jun-07 20:28N 54°37' W 005°54'0 0.0
2018-Jun-07 19:58N 54°37' W 005°54'0 0.0
2018-Jun-07 19:31N 54°37' W 005°54'0 0.0
2018-Jun-07 18:58N 54°37' W 005°54'0 0.0
2018-Jun-07 18:28N 54°37' W 005°54'0 0.0
2018-Jun-07 17:58N 54°37' W 005°54'0 0.0
2018-Jun-07 17:28N 54°37' W 005°54'0 0.0
2018-Jun-07 16:58N 54°37' W 005°54'0 0.0
2018-Jun-07 16:28N 54°37' W 005°54'0 0.0
2018-Jun-07 15:58N 54°37' W 005°54'0 0.0
2018-Jun-07 15:28N 54°37' W 005°54'0 0.0
2018-Jun-07 14:58N 54°37' W 005°54'0 0.0
2018-Jun-07 14:28N 54°37' W 005°54'0 0.0
2018-Jun-07 14:01N 54°37' W 005°54'0 0.0
2018-Jun-07 13:28N 54°37' W 005°54'0 0.0
2018-Jun-07 13:01N 54°37' W 005°54'0 0.0
2018-Jun-07 12:28N 54°37' W 005°54'0 0.0
2018-Jun-07 11:58N 54°37' W 005°54'0 0.0
2018-Jun-07 11:28N 54°37' W 005°54'0 0.0
2018-Jun-07 10:58N 54°37' W 005°54'0 0.0
2018-Jun-07 10:28N 54°37' W 005°54'0 0.0
2018-Jun-07 10:01N 54°37' W 005°54'0 0.0
2018-Jun-07 09:28N 54°37' W 005°54'0 0.0
2018-Jun-07 08:58N 54°37' W 005°54'0 0.0
2018-Jun-07 08:25N 54°37' W 005°54'0 0.0
2018-Jun-07 07:58N 54°37' W 005°54'0 0.0
2018-Jun-07 07:28N 54°37' W 005°54'0 0.0
2018-Jun-07 06:58N 54°37' W 005°54'0 0.0
2018-Jun-07 06:28N 54°37' W 005°54'0 0.0
2018-Jun-07 05:58N 54°37' W 005°54'0 0.0
2018-Jun-07 05:31N 54°37' W 005°54'0 0.0
2018-Jun-07 04:58N 54°37' W 005°54'0 0.0
2018-Jun-07 04:31N 54°37' W 005°54'0 0.0
2018-Jun-07 04:01N 54°37' W 005°54'0 0.0
2018-Jun-07 03:28N 54°37' W 005°54'0 0.0
2018-Jun-07 03:01N 54°37' W 005°54'0 0.0
2018-Jun-07 02:28N 54°37' W 005°54'0 0.0
2018-Jun-07 02:01N 54°37' W 005°54'0 0.0
2018-Jun-07 01:28N 54°37' W 005°54'0 0.0
2018-Jun-07 00:58N 54°37' W 005°54'0 0.0
2018-Jun-07 00:28N 54°37' W 005°54'0 0.0
2018-Jun-06 23:58N 54°37' W 005°54'0 0.0
2018-Jun-06 23:28N 54°37' W 005°54'0 0.0
2018-Jun-06 23:01N 54°37' W 005°54'0 0.0
2018-Jun-06 22:28N 54°37' W 005°54'0 0.0
2018-Jun-06 21:58N 54°37' W 005°54'0 0.0
2018-Jun-06 21:28N 54°37' W 005°54'0 0.0
2018-Jun-06 20:55N 54°37' W 005°54'0 0.0
2018-Jun-06 20:28N 54°37' W 005°54'0 0.0
2018-Jun-06 19:58N 54°37' W 005°54'0 0.0
2018-Jun-06 19:31N 54°37' W 005°54'0 0.0
2018-Jun-06 18:58N 54°37' W 005°54'0 0.0
2018-Jun-06 18:28N 54°37' W 005°54'0 0.0
2018-Jun-06 17:58N 54°37' W 005°54'0 0.0
2018-Jun-06 17:25N 54°37' W 005°54'0 0.0
2018-Jun-06 16:58N 54°37' W 005°54'0 0.0
2018-Jun-06 16:25N 54°37' W 005°54'0 0.0
2018-Jun-06 15:58N 54°37' W 005°54'0 0.0
2018-Jun-06 15:28N 54°37' W 005°54'0 0.0
2018-Jun-06 14:58N 54°37' W 005°54'0 0.0
2018-Jun-06 14:28N 54°37' W 005°54'0 0.0
2018-Jun-06 13:58N 54°37' W 005°54'0 0.0
2018-Jun-06 13:31N 54°37' W 005°54'0 0.0
2018-Jun-06 12:58N 54°37' W 005°54'0 0.0
2018-Jun-06 12:28N 54°37' W 005°54'0 0.0
2018-Jun-06 11:58N 54°37' W 005°54'0 0.0
2018-Jun-06 11:31N 54°37' W 005°54'0 0.0
2018-Jun-06 10:58N 54°37' W 005°54'0 0.0
2018-Jun-06 10:28N 54°37' W 005°54'0 0.0
2018-Jun-06 09:58N 54°37' W 005°54'0 0.0
2018-Jun-06 09:28N 54°37' W 005°54'0 0.0
2018-Jun-06 08:55N 54°37' W 005°54'0 0.0
2018-Jun-06 08:28N 54°37' W 005°54'0 0.0
2018-Jun-06 07:58N 54°37' W 005°54'0 0.0
2018-Jun-06 07:31N 54°37' W 005°54'0 0.0
2018-Jun-06 06:58N 54°37' W 005°54'0 0.0
2018-Jun-06 06:31N 54°37' W 005°54'0 0.0
2018-Jun-06 05:58N 54°37' W 005°54'0 0.0
2018-Jun-06 05:28N 54°37' W 005°54'0 0.0
2018-Jun-06 04:58N 54°37' W 005°54'0 0.0
2018-Jun-06 04:28N 54°37' W 005°54'0 0.0
2018-Jun-06 03:58N 54°37' W 005°54'0 0.0
2018-Jun-06 03:28N 54°37' W 005°54'0 0.0
2018-Jun-06 02:58N 54°37' W 005°54'0 0.0
2018-Jun-06 02:31N 54°37' W 005°54'0 0.0
2018-Jun-06 02:01N 54°37' W 005°54'0 0.0
2018-Jun-06 01:28N 54°37' W 005°54'0 0.0
2018-Jun-06 01:01N 54°37' W 005°54'0 0.0
2018-Jun-06 00:31N 54°37' W 005°54'0 0.0
2018-Jun-05 23:58N 54°37' W 005°54'0 0.0
2018-Jun-05 23:28N 54°37' W 005°54'0 0.0
2018-Jun-05 22:58N 54°37' W 005°54'0 0.0
2018-Jun-05 22:25N 54°37' W 005°54'0 0.0
2018-Jun-05 21:58N 54°37' W 005°54'0 0.0
2018-Jun-05 21:28N 54°37' W 005°54'0 0.0
2018-Jun-05 20:58N 54°37' W 005°54'0 0.0
2018-Jun-05 20:28N 54°37' W 005°54'0 0.0
2018-Jun-05 19:58N 54°37' W 005°54'0 0.0
2018-Jun-05 19:31N 54°37' W 005°54'0 0.0
2018-Jun-05 18:58N 54°37' W 005°54'0 0.0
2018-Jun-05 18:28N 54°37' W 005°54'0 0.0
2018-Jun-05 17:58N 54°37' W 005°54'0 0.0
2018-Jun-05 17:25N 54°37' W 005°54'0 0.0
2018-Jun-05 16:58N 54°37' W 005°54'0 0.0
2018-Jun-05 16:30N 54°37' W 005°54'0 0.9
2018-Jun-05 16:00N 54°38' W 005°53'4 8.6
2018-Jun-05 15:30N 54°41' W 005°49'5 9.1
2018-Jun-05 15:01N 54°42' W 005°41'0 0.8
2018-Jun-05 14:29N 54°41' W 005°41'0 0.0
2018-Jun-05 13:59N 54°41' W 005°41'0 0.0
2018-Jun-05 13:30N 54°41' W 005°41'0 0.0
2018-Jun-05 13:00N 54°41' W 005°41'0 0.0
2018-Jun-05 12:30N 54°41' W 005°41'0 0.0
2018-Jun-05 11:59N 54°41' W 005°41'0 0.0
2018-Jun-05 11:29N 54°41' W 005°41'0 0.0
2018-Jun-05 10:59N 54°41' W 005°41'0 0.1
2018-Jun-05 10:29N 54°41' W 005°41'0 0.0
2018-Jun-05 09:59N 54°41' W 005°41'0 0.0
2018-Jun-05 09:29N 54°41' W 005°41'0 0.0
2018-Jun-05 08:59N 54°41' W 005°41'0 0.0
2018-Jun-05 08:29N 54°41' W 005°41'0 0.0
2018-Jun-05 07:59N 54°41' W 005°41'0 0.0
2018-Jun-05 07:29N 54°41' W 005°41'0 0.0
2018-Jun-05 06:59N 54°41' W 005°41'0 0.0
2018-Jun-05 06:29N 54°41' W 005°41'0 0.0
2018-Jun-05 05:59N 54°41' W 005°41'0 0.0
2018-Jun-05 05:29N 54°41' W 005°41'0 0.0
2018-Jun-05 04:59N 54°41' W 005°41'0 0.0
2018-Jun-05 04:29N 54°41' W 005°41'0 0.0
2018-Jun-05 03:59N 54°41' W 005°41'0 0.0
2018-Jun-05 03:29N 54°41' W 005°41'0 0.0
2018-Jun-05 02:59N 54°41' W 005°41'0 0.0
2018-Jun-05 02:29N 54°41' W 005°41'0 0.0
2018-Jun-05 02:00N 54°41' W 005°41'0 0.0
2018-Jun-05 01:29N 54°41' W 005°41'0 0.0
2018-Jun-05 00:59N 54°41' W 005°41'0 0.0
2018-Jun-05 00:29N 54°41' W 005°41'0 0.0
2018-Jun-05 00:00N 54°41' W 005°41'0 0.0
2018-Jun-04 23:29N 54°41' W 005°41'  
Track history (hours):
 
Tides and Currents Weather Stations Pressure Air Temp Water Temp Dewpoint Dewpoint Depression Visibility Wind Speed Wind Dir Waves Ship Positions

Arklow Rogue

Last reported at 2018-Jun-14 23:15 UTC. Time now 2018-Jun-20 05:35 UTC.
Position N 44°48' W 002°43'.

Length 90 m; draft 3.4 m.

Type: Cargo ship. MMSI: 250000960.

Date/timePositionNaut miles runAvg speedWind from/ knotsBaromVisibWave heightAir tempDewpointWater temp
2018-Jun-14 23:15N 44°48' W 002°43'1911.1
2018-Jun-14 21:33N 44°32' W 002°28'011.2
2018-Jun-14 21:30N 44°32' W 002°28'711.3
2018-Jun-14 20:55N 44°27' W 002°23'511.3
2018-Jun-14 20:30N 44°23' W 002°19'611.2
2018-Jun-14 20:00N 44°18' W 002°15'611.6
2018-Jun-14 19:30N 44°13' W 002°11'612.0
2018-Jun-14 19:00N 44°08' W 002°06'612.1
2018-Jun-14 18:30N 44°03' W 002°02'1012.0
2018-Jun-14 17:42N 43°55' W 001°54'211.8
2018-Jun-14 17:30N 43°53' W 001°52'611.6
2018-Jun-14 17:00N 43°48' W 001°48'611.3
2018-Jun-14 16:30N 43°44' W 001°43'611.4
2018-Jun-14 16:00N 43°39' W 001°38'611.5
2018-Jun-14 15:30N 43°34' W 001°34'4 8.1
2018-Jun-14 15:00N 43°32' W 001°30'0 0.0
2018-Jun-14 14:30N 43°32' W 001°30'0 0.0
2018-Jun-14 14:00N 43°32' W 001°30'0 0.0
2018-Jun-14 13:30N 43°32' W 001°30'0 0.0
2018-Jun-14 13:00N 43°32' W 001°30'0 0.0
2018-Jun-14 12:30N 43°32' W 001°30'0 0.0
2018-Jun-14 12:00N 43°32' W 001°30'0 0.0
2018-Jun-14 11:30N 43°32' W 001°30'0 0.0
2018-Jun-14 11:00N 43°32' W 001°30'0 0.0
2018-Jun-14 10:30N 43°32' W 001°30'0 0.0
2018-Jun-14 10:00N 43°32' W 001°30'0 0.0
2018-Jun-14 09:27N 43°32' W 001°30'0 0.0
2018-Jun-14 09:00N 43°32' W 001°30'0 0.0
2018-Jun-14 08:30N 43°32' W 001°30'0 0.0
2018-Jun-14 08:00N 43°32' W 001°30'0 0.0
2018-Jun-14 07:30N 43°32' W 001°30'0 0.0
2018-Jun-14 06:57N 43°32' W 001°30'0 0.0
2018-Jun-14 06:30N 43°32' W 001°30'0 0.0
2018-Jun-14 06:00N 43°32' W 001°30'0 0.0
2018-Jun-14 05:30N 43°32' W 001°30'0 0.0
2018-Jun-14 05:00N 43°32' W 001°30'0 0.0
2018-Jun-14 04:30N 43°32' W 001°30'0 0.0
2018-Jun-14 04:00N 43°32' W 001°30'0 0.0
2018-Jun-14 03:27N 43°32' W 001°30'0 0.0
2018-Jun-14 03:00N 43°32' W 001°30'0 0.0
2018-Jun-14 02:30N 43°32' W 001°30'0 0.0
2018-Jun-14 02:00N 43°32' W 001°30'0 0.0
2018-Jun-14 01:27N 43°32' W 001°30'0 0.0
2018-Jun-14 01:00N 43°32' W 001°30'0 0.0
2018-Jun-14 00:30N 43°32' W 001°30'0 0.0
2018-Jun-14 00:00N 43°32' W 001°30'0 0.0
2018-Jun-13 23:30N 43°32' W 001°30'0 0.0
2018-Jun-13 23:00N 43°32' W 001°30'0 0.0
2018-Jun-13 22:30N 43°32' W 001°30'0 0.0
2018-Jun-13 22:00N 43°32' W 001°30'0 0.0
2018-Jun-13 21:30N 43°32' W 001°30'0 0.0
2018-Jun-13 21:00N 43°32' W 001°30'0 0.0
2018-Jun-13 20:30N 43°32' W 001°30'2 3.0
2018-Jun-13 20:00N 43°32' W 001°32'611.0
2018-Jun-13 19:29N 43°36' W 001°36'612.0
2018-Jun-13 19:00N 43°41' W 001°41'712.6
2018-Jun-13 18:29N 43°47' W 001°45'912.7
2018-Jun-13 17:46N 43°55' W 001°52'313.0
2018-Jun-13 17:31N 43°58' W 001°54'612.9
2018-Jun-13 17:01N 44°03' W 001°59'612.9
2018-Jun-13 16:30N 44°08' W 002°04'713.0
2018-Jun-13 16:00N 44°14' W 002°09'612.9
2018-Jun-13 15:30N 44°20' W 002°13'712.9
2018-Jun-13 14:59N 44°26' W 002°18'23712.4
2018-Jun-12 19:53N 47°48' W 005°16'1213.5
2018-Jun-12 18:58N 47°59' W 005°26'1413.5
2018-Jun-12 17:58N 48°10' W 005°37'1313.4
2018-Jun-12 16:58N 48°22' W 005°46'1413.0
2018-Jun-12 15:53N 48°34' W 005°57'11212.2
2018-Jun-12 06:42N 50°26' W 005°52'313.4
2018-Jun-12 06:31N 50°28' W 005°49'812.9
2018-Jun-12 05:52N 50°34' W 005°41'512.4
2018-Jun-12 05:29N 50°37' W 005°36'612.1
2018-Jun-12 05:00N 50°42' W 005°30'611.8
2018-Jun-12 04:31N 50°46' W 005°23'611.3
2018-Jun-12 04:01N 50°50' W 005°17'611.2
2018-Jun-12 03:31N 50°54' W 005°11'611.0
2018-Jun-12 03:01N 50°58' W 005°05'611.1
2018-Jun-12 02:30N 51°02' W 004°59'611.0
2018-Jun-12 02:01N 51°06' W 004°53'611.1
2018-Jun-12 01:31N 51°10' W 004°47'710.1
2018-Jun-12 00:52N 51°14' W 004°39'410.5
2018-Jun-12 00:30N 51°15' W 004°33'4512.9
2018-Jun-11 20:59N 51°22' W 003°21'1014.4
2018-Jun-11 20:17N 51°24' W 003°06'415.7
2018-Jun-11 20:00N 51°27' W 002°60'816.9
2018-Jun-11 19:30N 51°30' W 002°47'3 5.7
2018-Jun-11 19:00N 51°30' W 002°43'0 1.0
2018-Jun-11 18:30N 51°31' W 002°42'0 0.0
2018-Jun-11 17:59N 51°31' W 002°42'0 0.0
2018-Jun-11 17:29N 51°31' W 002°42'0 0.0
2018-Jun-11 16:59N 51°31' W 002°42'0 0.0
2018-Jun-11 16:29N 51°31' W 002°42'0 0.0
2018-Jun-11 15:59N 51°31' W 002°42'0 0.0
2018-Jun-11 15:29N 51°31' W 002°42'0 0.0
2018-Jun-11 14:59N 51°31' W 002°42'0 0.0
2018-Jun-11 14:29N 51°31' W 002°42'0 0.0
2018-Jun-11 13:59N 51°31' W 002°42'0 0.0
2018-Jun-11 13:29N 51°31' W 002°42'0 0.0
2018-Jun-11 12:59N 51°31' W 002°42'0 0.0
2018-Jun-11 12:29N 51°31' W 002°42'0 0.0
2018-Jun-11 11:59N 51°31' W 002°42'0 0.0
2018-Jun-11 11:29N 51°31' W 002°42'0 0.0
2018-Jun-11 10:59N 51°31' W 002°42'0 0.0
2018-Jun-11 10:26N 51°31' W 002°42'0 0.0
2018-Jun-11 09:59N 51°31' W 002°42'0 0.0
2018-Jun-11 09:29N 51°31' W 002°42'0 0.0
2018-Jun-11 08:59N 51°31' W 002°42'0 0.0
2018-Jun-11 08:29N 51°31' W 002°42'0 0.0
2018-Jun-11 07:59N 51°31' W 002°42'0 0.0
2018-Jun-11 07:29N 51°31' W 002°42'0 0.0
2018-Jun-11 06:59N 51°31' W 002°42'0 0.0
2018-Jun-11 06:29N 51°31' W 002°42'0 0.0
2018-Jun-11 05:59N 51°31' W 002°42'0 0.0
2018-Jun-11 05:29N 51°31' W 002°42'0 0.0
2018-Jun-11 04:59N 51°31' W 002°42'0 0.0
2018-Jun-11 04:29N 51°31' W 002°42'0 0.0
2018-Jun-11 03:59N 51°31' W 002°42'0 0.0
2018-Jun-11 03:29N 51°31' W 002°42'0 0.0
2018-Jun-11 02:59N 51°31' W 002°42'0 0.0
2018-Jun-11 02:29N 51°31' W 002°42'0 0.0
2018-Jun-11 01:59N 51°31' W 002°42'0 0.0
2018-Jun-11 01:29N 51°31' W 002°42'0 0.0
2018-Jun-11 00:59N 51°31' W 002°42'0 0.0
2018-Jun-11 00:29N 51°31' W 002°42'0 0.0
2018-Jun-10 23:59N 51°31' W 002°42'0 0.0
2018-Jun-10 23:29N 51°31' W 002°42'0 0.0
2018-Jun-10 22:59N 51°31' W 002°42'0 0.0
2018-Jun-10 22:29N 51°31' W 002°42'0 0.0
2018-Jun-10 21:59N 51°31' W 002°42'0 0.0
2018-Jun-10 21:29N 51°31' W 002°42'0 0.0
2018-Jun-10 20:59N 51°31' W 002°42'0 0.0
2018-Jun-10 20:29N 51°31' W 002°42'0 0.0
2018-Jun-10 19:59N 51°31' W 002°42'0 0.0
2018-Jun-10 19:29N 51°31' W 002°42'0 0.0
2018-Jun-10 18:59N 51°31' W 002°42'0 0.0
2018-Jun-10 18:29N 51°31' W 002°42'0 0.0
2018-Jun-10 17:59N 51°31' W 002°42'0 0.0
2018-Jun-10 17:29N 51°31' W 002°42'0 0.0
2018-Jun-10 16:59N 51°31' W 002°42'0 0.0
2018-Jun-10 16:30N 51°31' W 002°42'1 1.0
2018-Jun-10 16:00N 51°30' W 002°43'0 0.6
2018-Jun-10 15:30N 51°30' W 002°43'5 9.0
2018-Jun-10 15:00N 51°29' W 002°50'713.5
2018-Jun-10 14:30N 51°26' W 003°00'4710.4
2018-Jun-10 09:58N 51°26' W 004°16'510.5
2018-Jun-10 09:28N 51°27' W 004°24'610.4
2018-Jun-10 08:53N 51°28' W 004°34'410.6
2018-Jun-10 08:30N 51°28' W 004°40'510.6
2018-Jun-10 08:00N 51°29' W 004°49'510.0
2018-Jun-10 07:30N 51°30' W 004°56'5 9.4
2018-Jun-10 07:01N 51°31' W 005°04'5 9.7
2018-Jun-10 06:30N 51°31' W 005°12'5 9.4
2018-Jun-10 06:00N 51°34' W 005°18'5 9.7
2018-Jun-10 05:30N 51°38' W 005°22'5 9.6
2018-Jun-10 05:00N 51°42' W 005°24'5610.5
2018-Jun-09 23:38N 52°39' W 005°26'213.2
2018-Jun-09 23:30N 52°41' W 005°26'713.2
2018-Jun-09 22:59N 52°47' W 005°26'713.6
2018-Jun-09 22:30N 52°54' W 005°25'2012.9
2018-Jun-09 20:58N 53°14' W 005°24'911.6
2018-Jun-09 20:12N 53°23' W 005°24'311.0
2018-Jun-09 19:54N 53°26' W 005°23'610.9
2018-Jun-09 19:19N 53°32' W 005°23'511.1
2018-Jun-09 18:54N 53°37' W 005°23'1911.0
2018-Jun-09 17:12N 53°56' W 005°21'411.0
2018-Jun-09 16:52N 53°59' W 005°21'411.2
2018-Jun-09 16:30N 54°03' W 005°21'511.2
2018-Jun-09 16:00N 54°09' W 005°20'1111.4
2018-Jun-09 15:00N 54°20' W 005°20'611.5
2018-Jun-09 14:30N 54°26' W 005°20'611.5
2018-Jun-09 14:00N 54°32' W 005°22'611.1
2018-Jun-09 13:30N 54°37' W 005°24'511.0
2018-Jun-09 13:00N 54°42' W 005°28'510.7
2018-Jun-09 12:30N 54°42' W 005°37'611.0
2018-Jun-09 12:00N 54°41' W 005°47'510.0
2018-Jun-09 11:31N 54°38' W 005°53'1 1.3
2018-Jun-09 10:58N 54°37' W 005°54'0 0.0
2018-Jun-09 10:28N 54°37' W 005°54'0 0.0
2018-Jun-09 09:58N 54°37' W 005°54'0 0.0
2018-Jun-09 09:28N 54°37' W 005°54'0 0.0
2018-Jun-09 08:58N 54°37' W 005°54'0 0.0
2018-Jun-09 08:28N 54°37' W 005°54'0 0.0
2018-Jun-09 07:58N 54°37' W 005°54'0 0.0
2018-Jun-09 07:28N 54°37' W 005°54'0 0.0
2018-Jun-09 06:58N 54°37' W 005°54'0 0.0
2018-Jun-09 06:28N 54°37' W 005°54'0 0.0
2018-Jun-09 05:58N 54°37' W 005°54'0 0.0
2018-Jun-09 05:28N 54°37' W 005°54'0 0.0
2018-Jun-09 04:58N 54°37' W 005°54'0 0.0
2018-Jun-09 04:28N 54°37' W 005°54'0 0.0
2018-Jun-09 03:58N 54°37' W 005°54'0 0.0
2018-Jun-09 03:28N 54°37' W 005°54'0 0.0
2018-Jun-09 02:58N 54°37' W 005°54'0 0.0
2018-Jun-09 02:28N 54°37' W 005°54'0 0.0
2018-Jun-09 01:58N 54°37' W 005°54'0 0.0
2018-Jun-09 01:25N 54°37' W 005°54'0 0.0
2018-Jun-09 00:58N 54°37' W 005°54'0 0.0
2018-Jun-09 00:28N 54°37' W 005°54'0 0.0
2018-Jun-08 23:58N 54°37' W 005°54'0 0.0
2018-Jun-08 23:28N 54°37' W 005°54'0 0.0
2018-Jun-08 22:58N 54°37' W 005°54'0 0.0
2018-Jun-08 22:25N 54°37' W 005°54'0 0.0
2018-Jun-08 21:55N 54°37' W 005°54'0 0.0
2018-Jun-08 21:28N 54°37' W 005°54'0 0.0
2018-Jun-08 20:55N 54°37' W 005°54'0 0.0
2018-Jun-08 20:22N 54°37' W 005°54'0 0.0
2018-Jun-08 19:58N 54°37' W 005°54'0 0.0
2018-Jun-08 19:28N 54°37' W 005°54'0 0.0
2018-Jun-08 18:58N 54°37' W 005°54'0 0.0
2018-Jun-08 18:28N 54°37' W 005°54'0 0.0
2018-Jun-08 18:01N 54°37' W 005°54'0 0.0
2018-Jun-08 17:28N 54°37' W 005°54'0 0.0
2018-Jun-08 16:58N 54°37' W 005°54'0 0.0
2018-Jun-08 09:46N 54°37' W 005°54'0 0.0
2018-Jun-08 09:22N 54°37' W 005°54'0 0.0
2018-Jun-08 08:52N 54°37' W 005°54'0 0.0
2018-Jun-08 08:28N 54°37' W 005°54'0 0.0
2018-Jun-08 07:58N 54°37' W 005°54'0 0.0
2018-Jun-08 07:31N 54°37' W 005°54'0 0.0
2018-Jun-08 06:55N 54°37' W 005°54'0 0.0
2018-Jun-08 06:28N 54°37' W 005°54'0 0.0
2018-Jun-08 05:58N 54°37' W 005°54'0 0.0
2018-Jun-08 05:31N 54°37' W 005°54'0 0.0
2018-Jun-08 04:58N 54°37' W 005°54'0 0.0
2018-Jun-08 04:28N 54°37' W 005°54'0 0.0
2018-Jun-08 03:58N 54°37' W 005°54'0 0.0
2018-Jun-08 03:28N 54°37' W 005°54'0 0.0
2018-Jun-08 02:58N 54°37' W 005°54'0 0.0
2018-Jun-08 02:28N 54°37' W 005°54'0 0.0
2018-Jun-08 01:58N 54°37' W 005°54'0 0.0
2018-Jun-08 01:28N 54°37' W 005°54'0 0.0
2018-Jun-08 00:58N 54°37' W 005°54'0 0.0
2018-Jun-08 00:31N 54°37' W 005°54'0 0.0
2018-Jun-07 23:58N 54°37' W 005°54'0 0.0
2018-Jun-07 23:28N 54°37' W 005°54'0 0.0
2018-Jun-07 22:58N 54°37' W 005°54'0 0.0
2018-Jun-07 22:28N 54°37' W 005°54'0 0.0
2018-Jun-07 22:01N 54°37' W 005°54'0 0.0
2018-Jun-07 21:28N 54°37' W 005°54'0 0.0
2018-Jun-07 20:58N 54°37' W 005°54'0 0.0
2018-Jun-07 20:28N 54°37' W 005°54'0 0.0
2018-Jun-07 19:58N 54°37' W 005°54'0 0.0
2018-Jun-07 19:31N 54°37' W 005°54'0 0.0
2018-Jun-07 18:58N 54°37' W 005°54'0 0.0
2018-Jun-07 18:28N 54°37' W 005°54'0 0.0
2018-Jun-07 17:58N 54°37' W 005°54'0 0.0
2018-Jun-07 17:28N 54°37' W 005°54'0 0.0
2018-Jun-07 16:58N 54°37' W 005°54'0 0.0
2018-Jun-07 16:28N 54°37' W 005°54'0 0.0
2018-Jun-07 15:58N 54°37' W 005°54'0 0.0
2018-Jun-07 15:28N 54°37' W 005°54'0 0.0
2018-Jun-07 14:58N 54°37' W 005°54'0 0.0
2018-Jun-07 14:28N 54°37' W 005°54'0 0.0
2018-Jun-07 14:01N 54°37' W 005°54'0 0.0
2018-Jun-07 13:28N 54°37' W 005°54'0 0.0
2018-Jun-07 13:01N 54°37' W 005°54'0 0.0
2018-Jun-07 12:28N 54°37' W 005°54'0 0.0
2018-Jun-07 11:58N 54°37' W 005°54'0 0.0
2018-Jun-07 11:28N 54°37' W 005°54'0 0.0
2018-Jun-07 10:58N 54°37' W 005°54'0 0.0
2018-Jun-07 10:28N 54°37' W 005°54'0 0.0
2018-Jun-07 10:01N 54°37' W 005°54'0 0.0
2018-Jun-07 09:28N 54°37' W 005°54'0 0.0
2018-Jun-07 08:58N 54°37' W 005°54'0 0.0
2018-Jun-07 08:25N 54°37' W 005°54'0 0.0
2018-Jun-07 07:58N 54°37' W 005°54'0 0.0
2018-Jun-07 07:28N 54°37' W 005°54'0 0.0
2018-Jun-07 06:58N 54°37' W 005°54'0 0.0
2018-Jun-07 06:28N 54°37' W 005°54'0 0.0
2018-Jun-07 05:58N 54°37' W 005°54'0 0.0
2018-Jun-07 05:31N 54°37' W 005°54'0 0.0
2018-Jun-07 04:58N 54°37' W 005°54'0 0.0
2018-Jun-07 04:31N 54°37' W 005°54'0 0.0
2018-Jun-07 04:01N 54°37' W 005°54'0 0.0
2018-Jun-07 03:28N 54°37' W 005°54'0 0.0
2018-Jun-07 03:01N 54°37' W 005°54'0 0.0
2018-Jun-07 02:28N 54°37' W 005°54'0 0.0
2018-Jun-07 02:01N 54°37' W 005°54'0 0.0
2018-Jun-07 01:28N 54°37' W 005°54'0 0.0
2018-Jun-07 00:58N 54°37' W 005°54'0 0.0
2018-Jun-07 00:28N 54°37' W 005°54'0 0.0
2018-Jun-06 23:58N 54°37' W 005°54'0 0.0
2018-Jun-06 23:28N 54°37' W 005°54'0 0.0
2018-Jun-06 23:01N 54°37' W 005°54'0 0.0
2018-Jun-06 22:28N 54°37' W 005°54'0 0.0
2018-Jun-06 21:58N 54°37' W 005°54'0 0.0
2018-Jun-06 21:28N 54°37' W 005°54'0 0.0
2018-Jun-06 20:55N 54°37' W 005°54'0 0.0
2018-Jun-06 20:28N 54°37' W 005°54'0 0.0
2018-Jun-06 19:58N 54°37' W 005°54'0 0.0
2018-Jun-06 19:31N 54°37' W 005°54'0 0.0
2018-Jun-06 18:58N 54°37' W 005°54'0 0.0
2018-Jun-06 18:28N 54°37' W 005°54'0 0.0
2018-Jun-06 17:58N 54°37' W 005°54'0 0.0
2018-Jun-06 17:25N 54°37' W 005°54'0 0.0
2018-Jun-06 16:58N 54°37' W 005°54'0 0.0
2018-Jun-06 16:25N 54°37' W 005°54'0 0.0
2018-Jun-06 15:58N 54°37' W 005°54'0 0.0
2018-Jun-06 15:28N 54°37' W 005°54'0 0.0
2018-Jun-06 14:58N 54°37' W 005°54'0 0.0
2018-Jun-06 14:28N 54°37' W 005°54'0 0.0
2018-Jun-06 13:58N 54°37' W 005°54'0 0.0
2018-Jun-06 13:31N 54°37' W 005°54'0 0.0
2018-Jun-06 12:58N 54°37' W 005°54'0 0.0
2018-Jun-06 12:28N 54°37' W 005°54'0 0.0
2018-Jun-06 11:58N 54°37' W 005°54'0 0.0
2018-Jun-06 11:31N 54°37' W 005°54'0 0.0
2018-Jun-06 10:58N 54°37' W 005°54'0 0.0
2018-Jun-06 10:28N 54°37' W 005°54'0 0.0
2018-Jun-06 09:58N 54°37' W 005°54'0 0.0
2018-Jun-06 09:28N 54°37' W 005°54'0 0.0
2018-Jun-06 08:55N 54°37' W 005°54'0 0.0
2018-Jun-06 08:28N 54°37' W 005°54'0 0.0
2018-Jun-06 07:58N 54°37' W 005°54'0 0.0
2018-Jun-06 07:31N 54°37' W 005°54'0 0.0
2018-Jun-06 06:58N 54°37' W 005°54'0 0.0
2018-Jun-06 06:31N 54°37' W 005°54'0 0.0
2018-Jun-06 05:58N 54°37' W 005°54'0 0.0
2018-Jun-06 05:28N 54°37' W 005°54'0 0.0
2018-Jun-06 04:58N 54°37' W 005°54'0 0.0
2018-Jun-06 04:28N 54°37' W 005°54'0 0.0
2018-Jun-06 03:58N 54°37' W 005°54'0 0.0
2018-Jun-06 03:28N 54°37' W 005°54'0 0.0
2018-Jun-06 02:58N 54°37' W 005°54'0 0.0
2018-Jun-06 02:31N 54°37' W 005°54'0 0.0
2018-Jun-06 02:01N 54°37' W 005°54'0 0.0
2018-Jun-06 01:28N 54°37' W 005°54'0 0.0
2018-Jun-06 01:01N 54°37' W 005°54'0 0.0
2018-Jun-06 00:31N 54°37' W 005°54'0 0.0
2018-Jun-05 23:58N 54°37' W 005°54'0 0.0
2018-Jun-05 23:28N 54°37' W 005°54'0 0.0
2018-Jun-05 22:58N 54°37' W 005°54'0 0.0
2018-Jun-05 22:25N 54°37' W 005°54'0 0.0
2018-Jun-05 21:58N 54°37' W 005°54'0 0.0
2018-Jun-05 21:28N 54°37' W 005°54'0 0.0
2018-Jun-05 20:58N 54°37' W 005°54'0 0.0
2018-Jun-05 20:28N 54°37' W 005°54'0 0.0
2018-Jun-05 19:58N 54°37' W 005°54'0 0.0
2018-Jun-05 19:31N 54°37' W 005°54'0 0.0
2018-Jun-05 18:58N 54°37' W 005°54'0 0.0
2018-Jun-05 18:28N 54°37' W 005°54'0 0.0
2018-Jun-05 17:58N 54°37' W 005°54'0 0.0
2018-Jun-05 17:25N 54°37' W 005°54'0 0.0
2018-Jun-05 16:58N 54°37' W 005°54'0 0.0
2018-Jun-05 16:30N 54°37' W 005°54'0 0.9
2018-Jun-05 16:00N 54°38' W 005°53'4 8.6
2018-Jun-05 15:30N 54°41' W 005°49'5 9.1
2018-Jun-05 15:01N 54°42' W 005°41'0 0.8
2018-Jun-05 14:29N 54°41' W 005°41'0 0.0
2018-Jun-05 13:59N 54°41' W 005°41'0 0.0
2018-Jun-05 13:30N 54°41' W 005°41'0 0.0
2018-Jun-05 13:00N 54°41' W 005°41'0 0.0
2018-Jun-05 12:30N 54°41' W 005°41'0 0.0
2018-Jun-05 11:59N 54°41' W 005°41'0 0.0
2018-Jun-05 11:29N 54°41' W 005°41'0 0.0
2018-Jun-05 10:59N 54°41' W 005°41'0 0.1
2018-Jun-05 10:29N 54°41' W 005°41'0 0.0
2018-Jun-05 09:59N 54°41' W 005°41'0 0.0
2018-Jun-05 09:29N 54°41' W 005°41'0 0.0
2018-Jun-05 08:59N 54°41' W 005°41'0 0.0
2018-Jun-05 08:29N 54°41' W 005°41'0 0.0
2018-Jun-05 07:59N 54°41' W 005°41'0 0.0
2018-Jun-05 07:29N 54°41' W 005°41'0 0.0
2018-Jun-05 06:59N 54°41' W 005°41'0 0.0
2018-Jun-05 06:29N 54°41' W 005°41'0 0.0
2018-Jun-05 05:59N 54°41' W 005°41'0 0.0
2018-Jun-05 05:29N 54°41' W 005°41'0 0.0
2018-Jun-05 04:59N 54°41' W 005°41'0 0.0
2018-Jun-05 04:29N 54°41' W 005°41'0 0.0
2018-Jun-05 03:59N 54°41' W 005°41'0 0.0
2018-Jun-05 03:29N 54°41' W 005°41'0 0.0
2018-Jun-05 02:59N 54°41' W 005°41'0 0.0
2018-Jun-05 02:29N 54°41' W 005°41'0 0.0
2018-Jun-05 02:00N 54°41' W 005°41'0 0.0
2018-Jun-05 01:29N 54°41' W 005°41'0 0.0
2018-Jun-05 00:59N 54°41' W 005°41'0 0.0
2018-Jun-05 00:29N 54°41' W 005°41'0 0.0
2018-Jun-05 00:00N 54°41' W 005°41'0 0.0
2018-Jun-04 23:29N 54°41' W 005°41'  

Dump ship's entire track history